ANA9029 RJFK-RJBB
Flight info
| Callsign | ANA9029 |
|---|---|
| Flight time | 0h 55m |
| Altitude | 29000 |
| Route | MIDAI M750 MADOG Y53 NIXOV |
| Aircraft | B77W/H-SDE1E2E3FGHIJ2J3J4J5M1RWXY/LB1D1 |
Departure
| Time | 2026-04-30 13:08 |
|---|---|
| Airport | Kagoshima Airport (RJFK) |
Arrival
| Time | 2026-04-30 14:04 |
|---|---|
| Airport | Kansai International Airport (RJBB) |
| Time | Latitude | Longitude | Altitude | Speed | Heading |
|---|---|---|---|---|---|
| 2026-04-30 12:37 | 31.80054 | 130.71766 | 895 ft | 0 kts | 238° |
| 2026-04-30 12:58 | 31.80058 | 130.71774 | 895 ft | 2 kts | 233° |
| 2026-04-30 12:59 | 31.80068 | 130.71789 | 897 ft | 2 kts | 230° |
| 2026-04-30 12:59 | 31.80079 | 130.71804 | 899 ft | 2 kts | 224° |
| 2026-04-30 12:59 | 31.80092 | 130.71817 | 898 ft | 2 kts | 215° |
| 2026-04-30 12:59 | 31.80106 | 130.71827 | 899 ft | 2 kts | 204° |
| 2026-04-30 13:00 | 31.80121 | 130.71833 | 900 ft | 2 kts | 189° |
| 2026-04-30 13:00 | 31.80138 | 130.71835 | 897 ft | 2 kts | 174° |
| 2026-04-30 13:00 | 31.80154 | 130.71831 | 898 ft | 2 kts | 161° |
| 2026-04-30 13:00 | 31.80168 | 130.71824 | 899 ft | 2 kts | 152° |
| 2026-04-30 13:01 | 31.80173 | 130.71821 | 899 ft | 0 kts | 151° |
| 2026-04-30 13:03 | 31.80172 | 130.71822 | 897 ft | 1 kts | 151° |
| 2026-04-30 13:03 | 31.80152 | 130.71835 | 897 ft | 8 kts | 150° |
| 2026-04-30 13:04 | 31.80085 | 130.71881 | 897 ft | 11 kts | 149° |
| 2026-04-30 13:04 | 31.80017 | 130.71929 | 897 ft | 12 kts | 149° |
| 2026-04-30 13:04 | 31.79940 | 130.71983 | 896 ft | 14 kts | 149° |
| 2026-04-30 13:04 | 31.79851 | 130.72045 | 896 ft | 15 kts | 149° |
| 2026-04-30 13:05 | 31.79762 | 130.72108 | 896 ft | 15 kts | 149° |
| 2026-04-30 13:05 | 31.79671 | 130.72169 | 896 ft | 15 kts | 150° |
| 2026-04-30 13:05 | 31.79580 | 130.72228 | 896 ft | 15 kts | 151° |
| 2026-04-30 13:06 | 31.79398 | 130.72346 | 896 ft | 15 kts | 150° |
| 2026-04-30 13:06 | 31.79307 | 130.72407 | 896 ft | 15 kts | 150° |
| 2026-04-30 13:06 | 31.79218 | 130.72467 | 897 ft | 15 kts | 150° |
| 2026-04-30 13:06 | 31.79131 | 130.72534 | 897 ft | 15 kts | 132° |
| 2026-04-30 13:07 | 31.79121 | 130.72597 | 898 ft | 6 kts | 75° |
| 2026-04-30 13:07 | 31.79148 | 130.72653 | 902 ft | 10 kts | 49° |
| 2026-04-30 13:07 | 31.79229 | 130.72686 | 905 ft | 17 kts | 343° |
| 2026-04-30 13:07 | 31.79407 | 130.72570 | 906 ft | 55 kts | 330° |
| 2026-04-30 13:08 | 31.79983 | 130.72179 | 905 ft | 133 kts | 330° |
| 2026-04-30 13:08 | 31.80964 | 130.71528 | 1075 ft | 175 kts | 330° |
| 2026-04-30 13:08 | 31.82029 | 130.70839 | 1850 ft | 175 kts | 327° |
| 2026-04-30 13:08 | 31.83115 | 130.70200 | 2595 ft | 181 kts | 349° |
| 2026-04-30 13:09 | 31.84377 | 130.70532 | 2947 ft | 205 kts | 37° |
| 2026-04-30 13:09 | 31.85183 | 130.72002 | 3152 ft | 232 kts | 81° |
| 2026-04-30 13:09 | 31.84977 | 130.73947 | 3426 ft | 255 kts | 113° |
| 2026-04-30 13:09 | 31.84246 | 130.75919 | 4096 ft | 268 kts | 116° |
| 2026-04-30 13:10 | 31.83470 | 130.77952 | 4977 ft | 277 kts | 116° |
| 2026-04-30 13:10 | 31.82667 | 130.80035 | 5873 ft | 282 kts | 117° |
| 2026-04-30 13:10 | 31.81844 | 130.82158 | 6743 ft | 288 kts | 118° |
| 2026-04-30 13:10 | 31.81006 | 130.84317 | 7606 ft | 293 kts | 118° |
| 2026-04-30 13:11 | 31.80152 | 130.86521 | 8446 ft | 299 kts | 119° |
| 2026-04-30 13:11 | 31.79282 | 130.88768 | 9314 ft | 305 kts | 119° |
| 2026-04-30 13:11 | 31.78396 | 130.91062 | 10115 ft | 311 kts | 119° |
| 2026-04-30 13:11 | 31.77477 | 130.93438 | 10627 ft | 330 kts | 120° |
| 2026-04-30 13:12 | 31.76527 | 130.95872 | 10841 ft | 358 kts | 120° |
| 2026-04-30 13:12 | 31.75451 | 130.98635 | 11192 ft | 383 kts | 119° |
| 2026-04-30 13:12 | 31.74329 | 131.01538 | 11932 ft | 397 kts | 120° |
| 2026-04-30 13:13 | 31.72013 | 131.07562 | 13859 ft | 411 kts | 121° |
| 2026-04-30 13:13 | 31.70840 | 131.10607 | 14746 ft | 418 kts | 121° |
| 2026-04-30 13:13 | 31.68403 | 131.16902 | 16614 ft | 429 kts | 122° |
| 2026-04-30 13:14 | 31.67157 | 131.20115 | 17496 ft | 436 kts | 122° |
| 2026-04-30 13:14 | 31.65895 | 131.23375 | 18352 ft | 442 kts | 122° |
| 2026-04-30 13:14 | 31.63320 | 131.30009 | 19937 ft | 450 kts | 123° |
| 2026-04-30 13:15 | 31.62160 | 131.33437 | 20634 ft | 463 kts | 111° |
| 2026-04-30 13:15 | 31.62653 | 131.41236 | 22047 ft | 504 kts | 70° |
| 2026-04-30 13:15 | 31.64305 | 131.44874 | 22726 ft | 509 kts | 60° |
| 2026-04-30 13:16 | 31.66177 | 131.48445 | 23334 ft | 517 kts | 59° |
| 2026-04-30 13:16 | 31.68109 | 131.52034 | 23942 ft | 522 kts | 59° |
| 2026-04-30 13:16 | 31.70047 | 131.55650 | 24532 ft | 526 kts | 59° |
| 2026-04-30 13:17 | 31.73887 | 131.62990 | 26085 ft | 525 kts | 59° |
| 2026-04-30 13:17 | 31.75768 | 131.66660 | 26925 ft | 524 kts | 59° |
| 2026-04-30 13:17 | 31.79494 | 131.74005 | 28599 ft | 524 kts | 59° |
| 2026-04-30 13:18 | 31.81365 | 131.77704 | 28910 ft | 529 kts | 59° |
| 2026-04-30 13:18 | 31.85221 | 131.85325 | 28885 ft | 555 kts | 59° |
| 2026-04-30 13:18 | 31.87216 | 131.89269 | 28878 ft | 568 kts | 59° |
| 2026-04-30 13:19 | 31.89261 | 131.93313 | 28879 ft | 579 kts | 59° |
| 2026-04-30 13:19 | 31.91333 | 131.97416 | 28868 ft | 588 kts | 59° |
| 2026-04-30 13:19 | 31.95563 | 132.05805 | 28863 ft | 602 kts | 59° |
| 2026-04-30 13:20 | 31.99868 | 132.14364 | 28855 ft | 612 kts | 59° |
| 2026-04-30 13:20 | 32.04204 | 132.23008 | 28838 ft | 612 kts | 59° |
| 2026-04-30 13:21 | 32.08535 | 132.31632 | 28839 ft | 610 kts | 58° |
| 2026-04-30 13:22 | 32.16450 | 132.43199 | 28854 ft | 605 kts | 43° |
| 2026-04-30 13:22 | 32.26158 | 132.52685 | 28856 ft | 607 kts | 34° |
| 2026-04-30 13:23 | 32.36148 | 132.61976 | 28849 ft | 610 kts | 36° |
| 2026-04-30 13:24 | 32.49363 | 132.74577 | 28853 ft | 609 kts | 36° |
| 2026-04-30 13:25 | 32.62558 | 132.87186 | 28844 ft | 609 kts | 36° |
| 2026-04-30 13:26 | 32.78417 | 133.03908 | 28835 ft | 614 kts | 49° |
| 2026-04-30 13:27 | 32.83288 | 133.11869 | 28830 ft | 571 kts | 56° |
| 2026-04-30 13:28 | 32.89404 | 133.22879 | 28874 ft | 518 kts | 55° |
| 2026-04-30 13:28 | 32.95605 | 133.33367 | 28866 ft | 514 kts | 54° |
| 2026-04-30 13:29 | 33.03722 | 133.47080 | 28486 ft | 492 kts | 54° |
| 2026-04-30 13:30 | 33.09527 | 133.56961 | 27133 ft | 484 kts | 55° |
| 2026-04-30 13:31 | 33.13354 | 133.63492 | 26412 ft | 476 kts | 55° |
| 2026-04-30 13:31 | 33.18988 | 133.73130 | 25336 ft | 468 kts | 56° |
| 2026-04-30 13:32 | 33.22686 | 133.79466 | 24607 ft | 461 kts | 56° |
| 2026-04-30 13:32 | 33.26241 | 133.85569 | 24443 ft | 431 kts | 56° |
| 2026-04-30 13:33 | 33.29522 | 133.91210 | 24104 ft | 398 kts | 56° |
| 2026-04-30 13:33 | 33.31864 | 133.96893 | 23268 ft | 370 kts | 90° |
| 2026-04-30 13:34 | 33.31813 | 133.99878 | 22637 ft | 351 kts | 111° |
| 2026-04-30 13:34 | 33.28665 | 134.05791 | 21118 ft | 297 kts | 158° |
| 2026-04-30 13:35 | 33.26864 | 134.06943 | 20997 ft | 291 kts | 170° |
| 2026-04-30 13:35 | 33.23085 | 134.07555 | 20870 ft | 260 kts | 196° |
| 2026-04-30 13:36 | 33.19762 | 134.06268 | 20875 ft | 248 kts | 211° |
| 2026-04-30 13:36 | 33.18264 | 134.05244 | 20873 ft | 248 kts | 220° |
| 2026-04-30 13:36 | 33.16089 | 134.02082 | 20869 ft | 249 kts | 235° |
| 2026-04-30 13:37 | 33.15107 | 134.00380 | 20867 ft | 250 kts | 235° |
| 2026-04-30 13:37 | 33.13130 | 133.96970 | 20851 ft | 250 kts | 234° |
| 2026-04-30 13:38 | 33.11154 | 133.93589 | 20850 ft | 247 kts | 234° |
| 2026-04-30 13:38 | 33.10171 | 133.91915 | 20846 ft | 246 kts | 234° |
| 2026-04-30 13:38 | 33.08220 | 133.88599 | 20852 ft | 243 kts | 234° |
| 2026-04-30 13:39 | 33.07042 | 133.84901 | 20859 ft | 247 kts | 257° |
| 2026-04-30 13:39 | 33.07125 | 133.80683 | 20862 ft | 264 kts | 272° |
| 2026-04-30 13:40 | 33.07685 | 133.78575 | 20842 ft | 275 kts | 290° |
| 2026-04-30 13:40 | 33.08964 | 133.76787 | 20856 ft | 293 kts | 308° |
| 2026-04-30 13:40 | 33.10676 | 133.75389 | 20862 ft | 305 kts | 320° |
| 2026-04-30 13:40 | 33.12628 | 133.74362 | 20863 ft | 317 kts | 331° |
| 2026-04-30 13:41 | 33.14841 | 133.73830 | 20863 ft | 334 kts | 347° |
| 2026-04-30 13:41 | 33.17208 | 133.74078 | 20849 ft | 352 kts | 9° |
| 2026-04-30 13:41 | 33.19491 | 133.75252 | 20835 ft | 364 kts | 28° |
| 2026-04-30 13:41 | 33.21492 | 133.77186 | 20389 ft | 376 kts | 48° |
| 2026-04-30 13:42 | 33.23079 | 133.79696 | 19836 ft | 382 kts | 56° |
| 2026-04-30 13:42 | 33.24595 | 133.82351 | 19135 ft | 393 kts | 56° |
| 2026-04-30 13:42 | 33.27692 | 133.87862 | 18343 ft | 400 kts | 56° |
| 2026-04-30 13:43 | 33.29254 | 133.90608 | 18006 ft | 399 kts | 56° |
| 2026-04-30 13:43 | 33.30825 | 133.93347 | 17546 ft | 399 kts | 55° |
| 2026-04-30 13:43 | 33.32398 | 133.96074 | 17079 ft | 399 kts | 55° |
| 2026-04-30 13:43 | 33.33975 | 133.98801 | 16695 ft | 397 kts | 55° |
| 2026-04-30 13:44 | 33.35534 | 134.01496 | 16437 ft | 392 kts | 55° |
| 2026-04-30 13:44 | 33.37076 | 134.04161 | 16186 ft | 388 kts | 55° |
| 2026-04-30 13:44 | 33.38609 | 134.06809 | 15950 ft | 387 kts | 55° |
| 2026-04-30 13:44 | 33.40139 | 134.09457 | 15687 ft | 387 kts | 56° |
| 2026-04-30 13:45 | 33.43184 | 134.14744 | 15195 ft | 385 kts | 56° |
| 2026-04-30 13:45 | 33.44700 | 134.17375 | 14945 ft | 383 kts | 56° |
| 2026-04-30 13:45 | 33.46212 | 134.19987 | 14706 ft | 379 kts | 56° |
| 2026-04-30 13:46 | 33.47700 | 134.22585 | 14455 ft | 376 kts | 56° |
| 2026-04-30 13:46 | 33.49162 | 134.25139 | 14353 ft | 368 kts | 56° |
| 2026-04-30 13:46 | 33.50600 | 134.27650 | 14106 ft | 371 kts | 56° |
| 2026-04-30 13:46 | 33.52061 | 134.30201 | 13902 ft | 372 kts | 56° |
| 2026-04-30 13:47 | 33.53526 | 134.32760 | 13653 ft | 372 kts | 56° |
| 2026-04-30 13:47 | 33.54987 | 134.35313 | 13424 ft | 371 kts | 56° |
| 2026-04-30 13:47 | 33.56445 | 134.37864 | 13155 ft | 371 kts | 56° |
| 2026-04-30 13:47 | 33.57913 | 134.40434 | 12883 ft | 366 kts | 56° |
| 2026-04-30 13:48 | 33.59319 | 134.42897 | 12652 ft | 359 kts | 56° |
| 2026-04-30 13:48 | 33.60779 | 134.45283 | 12408 ft | 350 kts | 46° |
| 2026-04-30 13:48 | 33.62714 | 134.47007 | 12200 ft | 348 kts | 23° |
| 2026-04-30 13:48 | 33.64962 | 134.48128 | 12021 ft | 352 kts | 19° |
| 2026-04-30 13:49 | 33.67266 | 134.49199 | 11785 ft | 356 kts | 19° |
| 2026-04-30 13:49 | 33.69571 | 134.50265 | 11557 ft | 354 kts | 19° |
| 2026-04-30 13:49 | 33.71858 | 134.51330 | 11336 ft | 352 kts | 19° |
| 2026-04-30 13:49 | 33.74128 | 134.52396 | 11103 ft | 349 kts | 20° |
| 2026-04-30 13:50 | 33.76384 | 134.53464 | 10884 ft | 347 kts | 20° |
| 2026-04-30 13:50 | 33.80836 | 134.55585 | 10432 ft | 336 kts | 20° |
| 2026-04-30 13:50 | 33.82961 | 134.56604 | 10197 ft | 321 kts | 20° |
| 2026-04-30 13:51 | 33.84991 | 134.57578 | 10003 ft | 309 kts | 20° |
| 2026-04-30 13:51 | 33.86986 | 134.58535 | 9812 ft | 310 kts | 21° |
| 2026-04-30 13:51 | 33.89003 | 134.59502 | 9634 ft | 314 kts | 21° |
| 2026-04-30 13:51 | 33.91031 | 134.60475 | 9411 ft | 313 kts | 21° |
| 2026-04-30 13:52 | 33.93018 | 134.61429 | 9194 ft | 309 kts | 21° |
| 2026-04-30 13:52 | 33.94994 | 134.62379 | 8991 ft | 304 kts | 21° |
| 2026-04-30 13:52 | 33.96950 | 134.63320 | 8795 ft | 301 kts | 21° |
| 2026-04-30 13:52 | 33.98890 | 134.64254 | 8609 ft | 299 kts | 22° |
| 2026-04-30 13:53 | 34.00819 | 134.65183 | 8421 ft | 299 kts | 22° |
| 2026-04-30 13:53 | 34.02757 | 134.66116 | 8241 ft | 302 kts | 22° |
| 2026-04-30 13:53 | 34.04720 | 134.67063 | 8050 ft | 304 kts | 22° |
| 2026-04-30 13:53 | 34.06684 | 134.68011 | 7855 ft | 304 kts | 22° |
| 2026-04-30 13:54 | 34.08647 | 134.68958 | 7657 ft | 304 kts | 22° |
| 2026-04-30 13:54 | 34.10607 | 134.69904 | 7449 ft | 303 kts | 23° |
| 2026-04-30 13:54 | 34.12564 | 134.70849 | 7263 ft | 302 kts | 23° |
| 2026-04-30 13:54 | 34.14444 | 134.71913 | 7040 ft | 294 kts | 39° |
| 2026-04-30 13:55 | 34.15576 | 134.73255 | 6845 ft | 287 kts | 60° |
| 2026-04-30 13:55 | 34.16558 | 134.75295 | 6587 ft | 280 kts | 67° |
| 2026-04-30 13:55 | 34.17482 | 134.77363 | 6318 ft | 280 kts | 67° |
| 2026-04-30 13:55 | 34.18396 | 134.79416 | 6037 ft | 281 kts | 67° |
| 2026-04-30 13:56 | 34.19325 | 134.81490 | 5738 ft | 280 kts | 68° |
| 2026-04-30 13:56 | 34.20250 | 134.83552 | 5462 ft | 278 kts | 68° |
| 2026-04-30 13:56 | 34.21170 | 134.85597 | 5199 ft | 276 kts | 69° |
| 2026-04-30 13:56 | 34.22090 | 134.87636 | 4903 ft | 275 kts | 69° |
| 2026-04-30 13:57 | 34.23002 | 134.89656 | 4627 ft | 273 kts | 69° |
| 2026-04-30 13:57 | 34.23906 | 134.91659 | 4343 ft | 270 kts | 69° |
| 2026-04-30 13:57 | 34.24800 | 134.93639 | 4092 ft | 267 kts | 68° |
| 2026-04-30 13:57 | 34.25797 | 134.95492 | 3846 ft | 259 kts | 58° |
| 2026-04-30 13:58 | 34.26925 | 134.97120 | 3629 ft | 245 kts | 56° |
| 2026-04-30 13:58 | 34.29026 | 135.00113 | 3278 ft | 234 kts | 56° |
| 2026-04-30 13:58 | 34.30065 | 135.01637 | 3095 ft | 235 kts | 56° |
| 2026-04-30 13:59 | 34.31101 | 135.03164 | 2896 ft | 234 kts | 55° |
| 2026-04-30 13:59 | 34.32123 | 135.04673 | 2709 ft | 230 kts | 55° |
| 2026-04-30 13:59 | 34.33085 | 135.06174 | 2487 ft | 220 kts | 65° |
| 2026-04-30 13:59 | 34.33544 | 135.07871 | 2235 ft | 207 kts | 80° |
| 2026-04-30 14:00 | 34.33887 | 135.09547 | 1986 ft | 204 kts | 77° |
| 2026-04-30 14:00 | 34.34887 | 135.12518 | 1718 ft | 177 kts | 58° |
| 2026-04-30 14:00 | 34.35555 | 135.13701 | 1673 ft | 164 kts | 56° |
| 2026-04-30 14:01 | 34.36240 | 135.14771 | 1658 ft | 159 kts | 53° |
| 2026-04-30 14:01 | 34.36923 | 135.15790 | 1563 ft | 165 kts | 53° |
| 2026-04-30 14:01 | 34.37589 | 135.16779 | 1354 ft | 155 kts | 52° |
| 2026-04-30 14:01 | 34.38234 | 135.17734 | 1132 ft | 137 kts | 53° |
| 2026-04-30 14:02 | 34.38835 | 135.18627 | 970 ft | 138 kts | 54° |
| 2026-04-30 14:02 | 34.39435 | 135.19520 | 766 ft | 135 kts | 52° |
| 2026-04-30 14:02 | 34.40025 | 135.20394 | 579 ft | 134 kts | 51° |
| 2026-04-30 14:02 | 34.40621 | 135.21264 | 399 ft | 135 kts | 51° |
| 2026-04-30 14:03 | 34.41214 | 135.22144 | 211 ft | 135 kts | 51° |
| 2026-04-30 14:03 | 34.41805 | 135.23030 | 45 ft | 136 kts | 50° |
| 2026-04-30 14:03 | 34.42360 | 135.23854 | 19 ft | 112 kts | 51° |
| 2026-04-30 14:03 | 34.42732 | 135.24410 | 19 ft | 58 kts | 51° |
| 2026-04-30 14:04 | 34.42943 | 135.24720 | 20 ft | 45 kts | 47° |
| 2026-04-30 14:04 | 34.43117 | 135.24849 | 20 ft | 17 kts | 24° |
| 2026-04-30 14:04 | 34.43228 | 135.24901 | 23 ft | 17 kts | 22° |
| 2026-04-30 14:04 | 34.43341 | 135.24931 | 26 ft | 17 kts | 343° |
| 2026-04-30 14:05 | 34.43424 | 135.24853 | 25 ft | 14 kts | 310° |
| 2026-04-30 14:05 | 34.43408 | 135.24754 | 26 ft | 13 kts | 231° |
| 2026-04-30 14:05 | 34.43353 | 135.24668 | 26 ft | 13 kts | 232° |
| 2026-04-30 14:05 | 34.43297 | 135.24582 | 25 ft | 13 kts | 230° |
| 2026-04-30 14:06 | 34.43240 | 135.24499 | 26 ft | 13 kts | 230° |
| 2026-04-30 14:06 | 34.43127 | 135.24329 | 26 ft | 11 kts | 231° |
| 2026-04-30 14:07 | 34.43157 | 135.24250 | 28 ft | 6 kts | 320° |
| 2026-04-30 14:07 | 34.43169 | 135.24237 | 27 ft | 0 kts | 320° |